Time;durP1;ratioP1;P1;durP2;ratioP2;P2;SDS_P1;SDS_P2;PMS_P1;PMS_P2;Temp;Humidity;BMP_temperature;BMP_pressure;BME280_temperature;BME280_humidity;BME280_pressure;Samples;Min_cycle;Max_cycle;Signal;HPM_P1;HPM_P2
2022/03/12 00:00:54;;;;;;;22.30;17.23;;;;;;;4.59;nan;99649.25;4901045;29;20458;-79
2022/03/12 00:03:21;;;;;;;21.17;16.15;;;;;;;4.63;nan;99649.97;4904019;29;20230;-76
2022/03/12 00:05:53;;;;;;;19.67;16.15;;;;;;;4.62;nan;99650.91;4899268;29;20213;-75
2022/03/12 00:08:44;;;;;;;21.02;14.68;;;;;;;4.48;nan;99651.41;4900471;29;21371;-76
2022/03/12 00:11:44;;;;;;;20.85;14.80;;;;;;;4.33;nan;99657.19;4903349;29;21286;-75
2022/03/12 00:14:09;;;;;;;24.88;14.15;;;;;;;4.29;nan;99658.19;4901529;29;20687;-75
2022/03/12 00:16:35;;;;;;;21.83;14.67;;;;;;;4.30;nan;99659.91;4903973;29;20213;-78
2022/03/12 00:19:05;;;;;;;20.53;14.83;;;;;;;4.34;nan;99654.53;4892282;29;20226;-75
2022/03/12 00:21:34;;;;;;;25.35;17.45;;;;;;;4.42;nan;99652.47;4901137;29;20202;-76
2022/03/12 00:24:00;;;;;;;22.27;15.20;;;;;;;4.47;nan;99656.69;4902428;29;20229;-79
2022/03/12 00:26:28;;;;;;;25.10;15.52;;;;;;;4.51;nan;99651.31;4901992;29;20210;-75
2022/03/12 00:28:54;;;;;;;23.52;16.80;;;;;;;4.57;nan;99656.28;4902613;29;20408;-75
2022/03/12 00:31:20;;;;;;;28.10;17.42;;;;;;;4.63;nan;99655.19;4902128;29;20979;-79
2022/03/12 00:33:45;;;;;;;23.60;16.57;;;;;;;4.66;nan;99658.50;4902401;29;20587;-75
2022/03/12 00:36:12;;;;;;;18.80;14.87;;;;;;;4.70;nan;99656.66;4901448;29;20466;-76
2022/03/12 00:38:38;;;;;;;19.33;14.77;;;;;;;4.69;nan;99647.13;4901848;29;20340;-75
2022/03/12 00:41:07;;;;;;;21.43;16.00;;;;;;;4.66;nan;99658.50;4902218;29;20225;-77
2022/03/12 00:43:33;;;;;;;19.13;14.45;;;;;;;4.64;nan;99652.53;4901489;29;20857;-75
2022/03/12 00:45:58;;;;;;;31.13;17.37;;;;;;;4.68;nan;99655.84;4903364;29;20212;-75
2022/03/12 00:48:24;;;;;;;19.87;15.23;;;;;;;4.74;nan;99649.56;4903093;29;20325;-75
2022/03/12 00:50:49;;;;;;;24.80;18.70;;;;;;;4.79;nan;99652.84;4901570;29;20233;-79
2022/03/12 00:53:15;;;;;;;23.50;17.00;;;;;;;4.85;nan;99658.63;4901115;29;20325;-76
2022/03/12 00:55:41;;;;;;;20.13;18.03;;;;;;;4.90;nan;99655.84;4898289;29;20222;-78
2022/03/12 00:58:06;;;;;;;19.60;15.83;;;;;;;4.95;nan;99664.34;4902286;29;20218;-76
2022/03/12 01:00:32;;;;;;;22.80;16.17;;;;;;;4.99;nan;99665.88;4902999;29;20226;-76
2022/03/12 01:02:57;;;;;;;21.73;18.83;;;;;;;5.07;nan;99669.03;4898614;29;20501;-78
2022/03/12 01:05:39;;;;;;;24.60;18.17;;;;;;;5.10;nan;99663.72;4901056;29;20292;-79
2022/03/12 01:08:04;;;;;;;19.80;14.98;;;;;;;5.11;nan;99659.38;4903542;29;20467;-79
2022/03/12 01:10:30;;;;;;;24.90;15.97;;;;;;;5.12;nan;99661.06;4900554;29;20238;-77
2022/03/12 01:12:55;;;;;;;28.83;16.97;;;;;;;5.14;nan;99668.81;4901955;29;20510;-79
2022/03/12 01:15:21;;;;;;;21.80;15.27;;;;;;;5.13;nan;99662.75;4901092;29;20872;-76
2022/03/12 01:17:47;;;;;;;17.97;13.60;;;;;;;5.12;nan;99671.47;4902786;29;20241;-76
2022/03/12 01:20:12;;;;;;;22.47;15.50;;;;;;;5.13;nan;99667.97;4900553;29;20490;-76
2022/03/12 01:22:38;;;;;;;23.10;15.13;;;;;;;5.16;nan;99669.56;4900802;29;20238;-76
2022/03/12 01:25:06;;;;;;;22.67;14.95;;;;;;;5.17;nan;99663.47;4901924;29;20210;-79
2022/03/12 01:27:32;;;;;;;21.83;14.70;;;;;;;5.19;nan;99661.66;4901821;29;20227;-75
2022/03/12 01:29:58;;;;;;;22.05;16.48;;;;;;;5.21;nan;99659.81;4897869;29;20229;-76
2022/03/12 01:32:24;;;;;;;21.83;15.60;;;;;;;5.23;nan;99660.63;4902936;29;20209;-79
2022/03/12 01:34:49;;;;;;;20.40;16.90;;;;;;;5.24;nan;99663.16;4906371;29;20213;-76
2022/03/12 01:37:19;;;;;;;18.63;13.77;;;;;;;5.27;nan;99668.25;4904451;29;20695;-78
2022/03/12 01:39:46;;;;;;;27.20;14.88;;;;;;;5.29;nan;99665.56;4907156;29;20278;-80
2022/03/12 01:42:14;;;;;;;21.50;13.57;;;;;;;5.31;nan;99671.56;4906763;29;20198;-77
2022/03/12 01:44:41;;;;;;;19.65;15.60;;;;;;;5.34;nan;99666.22;4904927;29;20210;-79
2022/03/12 01:47:08;;;;;;;18.52;13.00;;;;;;;5.36;nan;99664.41;4902261;29;20198;-80
2022/03/12 01:49:34;;;;;;;21.77;15.80;;;;;;;5.38;nan;99662.59;4905664;29;20234;-75
2022/03/12 01:52:00;;;;;;;19.45;15.18;;;;;;;5.38;nan;99664.38;4904333;29;20202;-76
2022/03/12 01:54:30;;;;;;;20.88;13.88;;;;;;;5.31;nan;99655.94;4905760;29;20210;-78
2022/03/12 01:56:57;;;;;;;20.27;14.55;;;;;;;5.25;nan;99658.81;4903905;29;20234;-76
2022/03/12 01:59:24;;;;;;;25.30;17.25;;;;;;;5.19;nan;99662.50;4903686;29;20214;-76
2022/03/12 02:01:55;;;;;;;23.55;16.67;;;;;;;5.14;nan;99659.25;4905745;29;20925;-79
2022/03/12 02:04:22;;;;;;;23.20;14.93;;;;;;;5.06;nan;99656.09;4906488;29;20249;-77
2022/03/12 02:06:50;;;;;;;22.60;14.55;;;;;;;5.03;nan;99657.06;4901882;29;20221;-75
2022/03/12 02:09:17;;;;;;;23.58;16.02;;;;;;;5.04;nan;99652.69;4903072;29;20285;-79
2022/03/12 02:11:51;;;;;;;20.90;14.95;;;;;;;5.04;nan;99656.16;4903664;29;20221;-78
2022/03/12 02:14:24;;;;;;;17.17;14.25;;;;;;;5.04;nan;99656.16;4904536;29;20194;-76
2022/03/12 02:16:59;;;;;;;20.85;15.20;;;;;;;5.08;nan;99664.69;4904052;29;20297;-76
2022/03/12 02:19:26;;;;;;;21.42;15.10;;;;;;;5.12;nan;99675.81;4904403;29;20237;-75
2022/03/12 02:21:55;;;;;;;18.58;14.57;;;;;;;5.15;nan;99660.09;4904700;29;20576;-78
2022/03/12 02:24:22;;;;;;;22.65;13.63;;;;;;;5.19;nan;99667.72;4906484;29;20263;-77
2022/03/12 02:26:48;;;;;;;22.52;15.13;;;;;;;5.23;nan;99666.66;4901707;29;20210;-77
2022/03/12 02:29:20;;;;;;;18.73;13.40;;;;;;;5.27;nan;99660.44;4899077;29;20214;-77
2022/03/12 02:32:01;;;;;;;23.05;14.52;;;;;;;5.27;nan;99659.59;4904601;29;20210;-75
2022/03/12 02:34:42;;;;;;;17.35;12.27;;;;;;;5.29;nan;99657.75;4900805;29;20229;-78
2022/03/12 02:37:09;;;;;;;20.95;14.63;;;;;;;5.28;nan;99649.09;4903503;29;20693;-77
2022/03/12 02:39:38;;;;;;;17.17;14.00;;;;;;;5.31;nan;99650.72;4903006;29;20246;-75
2022/03/12 02:42:05;;;;;;;24.83;16.90;;;;;;;5.31;nan;99651.56;4903094;29;20229;-75
2022/03/12 02:44:30;;;;;;;23.17;16.58;;;;;;;5.31;nan;99645.53;4905202;29;20261;-77
2022/03/12 02:47:15;;;;;;;22.50;14.13;;;;;;;5.33;nan;99651.53;4895919;29;20363;-76
2022/03/12 02:49:53;;;;;;;21.45;14.52;;;;;;;5.33;nan;99654.97;4906153;29;20241;-75
2022/03/12 02:52:20;;;;;;;21.52;13.75;;;;;;;5.30;nan;99651.66;4905326;29;20228;-77
2022/03/12 02:54:47;;;;;;;20.80;13.70;;;;;;;5.31;nan;99656.78;4903522;29;20215;-75
2022/03/12 02:57:12;;;;;;;20.77;14.15;;;;;;;5.32;nan;99652.44;4903676;29;20325;-77
2022/03/12 02:59:41;;;;;;;22.00;14.23;;;;;;;5.34;nan;99658.41;4905284;29;20309;-76
2022/03/12 03:02:08;;;;;;;21.30;16.55;;;;;;;5.38;nan;99646.97;4902125;29;20987;-76
2022/03/12 03:04:35;;;;;;;19.73;14.73;;;;;;;5.40;nan;99645.16;4895081;29;20592;-77
2022/03/12 03:07:03;;;;;;;20.45;14.60;;;;;;;5.43;nan;99654.59;4903119;29;20218;-75
2022/03/12 03:09:29;;;;;;;19.48;13.70;;;;;;;5.45;nan;99651.00;4903658;29;20252;-75
2022/03/12 03:11:57;;;;;;;17.23;12.95;;;;;;;5.48;nan;99650.88;4904995;29;20707;-77
2022/03/12 03:14:27;;;;;;;16.40;13.30;;;;;;;5.51;nan;99650.75;4904655;29;20640;-75
2022/03/12 03:16:59;;;;;;;21.10;14.50;;;;;;;5.54;nan;99653.22;4901613;29;20495;-75
2022/03/12 03:19:26;;;;;;;26.75;13.77;;;;;;;5.54;nan;99653.22;4903347;29;20229;-74
2022/03/12 03:21:56;;;;;;;20.10;15.82;;;;;;;5.52;nan;99654.19;4905102;29;20210;-77
2022/03/12 03:24:23;;;;;;;21.48;13.13;;;;;;;5.49;nan;99652.56;4904962;29;20230;-76
2022/03/12 03:26:51;;;;;;;18.30;13.82;;;;;;;5.49;nan;99655.19;4902532;29;20206;-77
2022/03/12 03:29:19;;;;;;;17.92;13.13;;;;;;;5.47;nan;99667.41;4903426;29;20213;-78
2022/03/12 03:31:44;;;;;;;23.65;16.02;;;;;;;5.44;nan;99662.34;4904364;29;20494;-75
2022/03/12 03:34:10;;;;;;;19.80;13.47;;;;;;;5.37;nan;99660.88;4901056;29;20198;-75
2022/03/12 03:36:37;;;;;;;18.87;14.07;;;;;;;5.30;nan;99667.28;4903550;29;20210;-77
2022/03/12 03:39:03;;;;;;;20.88;14.38;;;;;;;5.25;nan;99664.00;4903586;29;20329;-75
2022/03/12 03:41:28;;;;;;;17.83;13.10;;;;;;;5.24;nan;99665.78;4902396;29;20206;-75
2022/03/12 03:43:53;;;;;;;20.43;14.00;;;;;;;5.25;nan;99669.22;4905166;29;20525;-77
2022/03/12 03:46:22;;;;;;;25.67;14.77;;;;;;;5.27;nan;99668.25;4901643;29;20249;-75
2022/03/12 03:48:50;;;;;;;22.40;13.75;;;;;;;5.30;nan;99668.13;4900945;29;20256;-74
2022/03/12 03:51:16;;;;;;;15.75;11.63;;;;;;;5.33;nan;99664.53;4902105;29;20210;-78
2022/03/12 03:53:42;;;;;;;16.48;13.15;;;;;;;5.32;nan;99662.84;4902476;29;20221;-75
2022/03/12 03:56:08;;;;;;;15.70;13.10;;;;;;;5.31;nan;99667.19;4902706;29;20202;-75
2022/03/12 03:58:35;;;;;;;21.70;13.20;;;;;;;5.31;nan;99667.19;4903389;29;20884;-75
2022/03/12 04:01:15;;;;;;;16.10;12.60;;;;;;;5.34;nan;99666.22;4902104;29;20210;-76
2022/03/12 04:03:44;;;;;;;15.85;12.07;;;;;;;5.36;nan;99668.78;4902996;29;20679;-75
2022/03/12 04:06:10;;;;;;;19.73;13.98;;;;;;;5.38;nan;99667.81;4900724;29;20214;-75
2022/03/12 04:08:36;;;;;;;15.40;12.07;;;;;;;5.39;nan;99668.66;4900311;29;20225;-75
2022/03/12 04:11:04;;;;;;;19.97;13.70;;;;;;;5.39;nan;99679.91;4902067;29;20217;-76
2022/03/12 04:13:31;;;;;;;19.33;16.38;;;;;;;5.40;nan;99678.16;4901269;29;20202;-75
2022/03/12 04:16:00;;;;;;;20.55;13.80;;;;;;;5.39;nan;99677.31;4903218;29;20277;-75
2022/03/12 04:18:26;;;;;;;18.35;14.77;;;;;;;5.39;nan;99685.13;4900034;29;20221;-75
2022/03/12 04:20:52;;;;;;;16.70;12.38;;;;;;;5.38;nan;99693.00;4896944;29;20428;-76
2022/03/12 04:23:21;;;;;;;18.57;12.00;;;;;;;5.38;nan;99696.47;4903664;29;20312;-75
2022/03/12 04:25:51;;;;;;;19.55;12.00;;;;;;;5.36;nan;99695.66;4902636;29;20685;-76
2022/03/12 04:28:18;;;;;;;18.98;12.82;;;;;;;5.34;nan;99697.47;4902853;29;20609;-75
2022/03/12 04:30:44;;;;;;;17.27;11.80;;;;;;;5.30;nan;99701.13;4902368;29;20209;-76
2022/03/12 04:33:10;;;;;;;21.80;15.70;;;;;;;5.31;nan;99706.25;4899771;29;20522;-75
2022/03/12 04:35:36;;;;;;;17.92;14.80;;;;;;;5.28;nan;99698.56;4903145;29;20643;-74
2022/03/12 04:38:03;;;;;;;19.03;13.20;;;;;;;5.26;nan;99702.16;4903168;29;20198;-76
2022/03/12 04:40:29;;;;;;;17.65;11.88;;;;;;;5.24;nan;99698.78;4902889;29;20198;-74
2022/03/12 04:42:55;;;;;;;16.73;11.95;;;;;;;5.22;nan;99705.81;4898387;29;20226;-74
2022/03/12 04:45:24;;;;;;;14.70;12.00;;;;;;;5.20;nan;99710.22;4902889;29;20225;-76
2022/03/12 04:47:53;;;;;;;15.35;11.93;;;;;;;5.19;nan;99708.53;4902116;29;20885;-74
2022/03/12 04:50:20;;;;;;;16.23;12.18;;;;;;;5.17;nan;99710.34;4902821;29;20242;-74
2022/03/12 04:52:49;;;;;;;18.00;11.75;;;;;;;5.14;nan;99716.53;4902023;29;20703;-76
2022/03/12 04:55:19;;;;;;;20.27;12.13;;;;;;;5.12;nan;99715.72;4902967;29;20321;-76
2022/03/12 04:57:46;;;;;;;15.35;11.43;;;;;;;5.12;nan;99722.69;4901985;29;20709;-75
2022/03/12 05:00:18;;;;;;;13.47;10.83;;;;;;;5.14;nan;99719.13;4902174;29;20294;-74
2022/03/12 05:02:45;;;;;;;18.67;14.70;;;;;;;5.20;nan;99721.47;4901136;29;20574;-75
2022/03/12 05:05:12;;;;;;;15.82;12.43;;;;;;;5.22;nan;99719.66;4899422;29;20206;-74
2022/03/12 05:07:43;;;;;;;20.23;12.93;;;;;;;5.23;nan;99717.91;4903491;29;20221;-76
2022/03/12 05:10:10;;;;;;;19.50;12.45;;;;;;;5.22;nan;99717.06;4907887;29;20247;-74
2022/03/12 05:12:36;;;;;;;18.08;11.45;;;;;;;5.23;nan;99721.34;4907584;29;22033;-76
2022/03/12 05:15:04;;;;;;;17.77;12.00;;;;;;;5.22;nan;99724.03;4908357;29;20210;-75
2022/03/12 05:17:34;;;;;;;19.25;11.90;;;;;;;5.22;nan;99730.09;4907830;29;20672;-74
2022/03/12 05:20:00;;;;;;;16.10;12.40;;;;;;;5.21;nan;99732.72;4900438;29;20585;-75
2022/03/12 05:22:25;;;;;;;18.50;13.05;;;;;;;5.22;nan;99727.47;4906229;29;20876;-74
2022/03/12 05:24:50;;;;;;;16.57;12.37;;;;;;;5.23;nan;99736.97;4906144;29;20202;-74
2022/03/12 05:27:19;;;;;;;19.83;12.75;;;;;;;5.26;nan;99736.00;4906754;29;21140;-76
2022/03/12 05:29:47;;;;;;;19.43;12.27;;;;;;;5.28;nan;99739.41;4908105;29;20226;-76
2022/03/12 05:32:12;;;;;;;19.48;14.50;;;;;;;5.32;nan;99731.41;4906538;29;20505;-74
2022/03/12 05:34:39;;;;;;;17.77;13.00;;;;;;;5.33;nan;99738.31;4907237;29;20210;-74
2022/03/12 05:37:08;;;;;;;17.20;13.20;;;;;;;5.35;nan;99740.88;4910370;29;20221;-75
2022/03/12 05:39:34;;;;;;;22.08;13.15;;;;;;;5.34;nan;99736.56;4907258;29;20260;-74
2022/03/12 05:42:05;;;;;;;14.35;12.80;;;;;;;5.36;nan;99733.91;4908247;29;20305;-75
2022/03/12 05:44:38;;;;;;;19.27;12.65;;;;;;;5.38;nan;99737.28;4903851;29;20320;-76
2022/03/12 05:47:04;;;;;;;16.05;12.15;;;;;;;5.41;nan;99739.78;4908683;29;20261;-76
2022/03/12 05:49:30;;;;;;;20.40;11.53;;;;;;;5.36;nan;99736.50;4907673;29;20222;-75
2022/03/12 05:51:56;;;;;;;19.60;11.47;;;;;;;5.25;nan;99739.53;4906699;29;21315;-76
2022/03/12 05:54:23;;;;;;;16.90;11.80;;;;;;;5.14;nan;99741.72;4908059;29;20202;-75
2022/03/12 05:56:50;;;;;;;19.63;13.30;;;;;;;5.05;nan;99743.78;4905567;29;20213;-74
2022/03/12 05:59:16;;;;;;;16.33;12.65;;;;;;;5.00;nan;99743.09;4905571;29;20234;-75
2022/03/12 06:01:41;;;;;;;19.98;13.02;;;;;;;5.00;nan;99743.09;4908883;29;20528;-75
2022/03/12 06:04:08;;;;;;;16.97;12.23;;;;;;;5.00;nan;99750.91;4914594;29;20234;-75
2022/03/12 06:06:34;;;;;;;15.25;11.25;;;;;;;5.00;nan;99744.88;4912972;29;20296;-75
2022/03/12 06:08:59;;;;;;;15.87;11.00;;;;;;;5.00;nan;99753.50;4914961;29;20340;-75
2022/03/12 06:11:25;;;;;;;17.80;12.73;;;;;;;5.03;nan;99753.38;4914451;29;20210;-75
2022/03/12 06:14:00;;;;;;;17.17;11.17;;;;;;;5.08;nan;99758.44;4912556;29;20560;-75
2022/03/12 06:16:26;;;;;;;23.83;15.25;;;;;;;5.12;nan;99748.72;4914118;29;20485;-75
2022/03/12 06:18:52;;;;;;;21.35;16.33;;;;;;;5.14;nan;99757.34;4911115;29;20230;-74
2022/03/12 06:21:18;;;;;;;29.00;18.50;;;;;;;5.16;nan;99755.50;4912280;29;20868;-74
2022/03/12 06:23:44;;;;;;;22.10;17.63;;;;;;;5.19;nan;99761.47;4907498;29;20630;-75
2022/03/12 06:26:14;;;;;;;26.80;15.43;;;;;;;5.23;nan;99757.81;4909956;29;20297;-77
2022/03/12 06:28:39;;;;;;;20.50;16.10;;;;;;;5.25;nan;99760.38;4911822;29;20254;-75
2022/03/12 06:31:04;;;;;;;27.57;15.90;;;;;;;5.31;nan;99762.72;4910200;29;20241;-76
2022/03/12 06:33:31;;;;;;;21.07;15.87;;;;;;;5.38;nan;99758.97;4900310;29;20292;-75
2022/03/12 06:35:57;;;;;;;23.60;14.50;;;;;;;5.44;nan;99761.31;4909033;29;20676;-76
2022/03/12 06:38:24;;;;;;;22.53;16.27;;;;;;;5.50;nan;99755.84;4909563;29;20889;-75
2022/03/12 06:40:51;;;;;;;20.75;14.80;;;;;;;5.55;nan;99756.53;4909572;29;20218;-74
2022/03/12 06:43:19;;;;;;;22.48;15.07;;;;;;;5.61;nan;99759.78;4910261;29;20235;-74
2022/03/12 06:45:47;;;;;;;22.35;15.30;;;;;;;5.68;nan;99758.66;4909948;29;20565;-73
2022/03/12 06:48:13;;;;;;;22.35;15.27;;;;;;;5.75;nan;99754.84;4910656;29;20690;-75
2022/03/12 06:50:38;;;;;;;25.93;16.57;;;;;;;5.83;nan;99749.31;4912028;29;20245;-75
2022/03/12 06:53:04;;;;;;;22.50;16.87;;;;;;;5.93;nan;99755.84;4909666;29;20195;-74
2022/03/12 06:55:31;;;;;;;19.27;15.70;;;;;;;5.99;nan;99753.00;4910216;29;20218;-74
2022/03/12 06:57:58;;;;;;;24.38;16.02;;;;;;;6.04;nan;99755.44;4910059;29;20214;-74
2022/03/12 07:00:25;;;;;;;22.75;14.85;;;;;;;6.07;nan;99750.94;4908525;29;20223;-74
2022/03/12 07:02:51;;;;;;;21.73;18.17;;;;;;;6.18;nan;99750.47;4907574;29;20509;-74
2022/03/12 07:05:16;;;;;;;23.33;16.83;;;;;;;6.25;nan;99754.50;4907383;29;20210;-75
2022/03/12 07:07:45;;;;;;;20.00;13.82;;;;;;;6.35;nan;99757.56;4909339;29;20217;-75
2022/03/12 07:10:11;;;;;;;21.83;12.10;;;;;;;6.47;nan;99750.97;4909217;29;20222;-75
2022/03/12 07:12:40;;;;;;;12.85;10.85;;;;;;;6.57;nan;99754.84;4910507;29;20202;-76
2022/03/12 07:15:05;;;;;;;22.75;12.90;;;;;;;6.70;nan;99748.19;4911161;29;20222;-76
2022/03/12 07:17:32;;;;;;;19.40;13.30;;;;;;;6.83;nan;99745.81;4908768;29;20211;-76
2022/03/12 07:19:58;;;;;;;17.13;11.77;;;;;;;6.95;nan;99752.28;4910532;29;20294;-76
2022/03/12 07:22:25;;;;;;;14.52;10.30;;;;;;;7.07;nan;99747.31;4908604;29;20246;-76
2022/03/12 07:24:51;;;;;;;15.33;10.53;;;;;;;7.18;nan;99745.94;4910235;29;20220;-75
2022/03/12 07:27:16;;;;;;;18.90;10.77;;;;;;;7.27;nan;99742.91;4909003;29;20233;-74
2022/03/12 07:29:42;;;;;;;19.13;12.83;;;;;;;7.40;nan;99745.75;4908766;29;20509;-74
2022/03/12 07:32:11;;;;;;;18.92;14.00;;;;;;;7.52;nan;99751.25;4900140;29;21124;-74
2022/03/12 07:34:36;;;;;;;15.70;12.63;;;;;;;7.62;nan;99754.28;4908697;29;20754;-75
2022/03/12 07:37:02;;;;;;;18.03;12.77;;;;;;;7.73;nan;99749.34;4910071;29;20221;-74
2022/03/12 07:39:28;;;;;;;15.97;13.30;;;;;;;7.87;nan;99750.44;4899307;29;20320;-77
2022/03/12 07:41:53;;;;;;;19.63;14.53;;;;;;;7.98;nan;99755.97;4908683;29;20281;-75
2022/03/12 07:44:19;;;;;;;21.57;14.90;;;;;;;8.07;nan;99752.88;4910558;29;20254;-76
2022/03/12 07:46:45;;;;;;;18.90;11.03;;;;;;;8.16;nan;99747.19;4902066;29;20238;-75
2022/03/12 07:49:11;;;;;;;15.35;10.88;;;;;;;8.24;nan;99753.81;4908454;29;20226;-76
2022/03/12 07:51:37;;;;;;;15.07;10.23;;;;;;;8.32;nan;99762.09;4909532;29;20214;-75
2022/03/12 07:54:06;;;;;;;17.38;12.38;;;;;;;8.40;nan;99758.19;4909970;29;20541;-77
2022/03/12 07:56:34;;;;;;;14.13;10.45;;;;;;;8.52;nan;99763.72;4908880;29;20288;-74
2022/03/12 07:59:00;;;;;;;12.25;9.95;;;;;;;8.63;nan;99763.97;4906777;29;20236;-75
2022/03/12 08:01:25;;;;;;;17.55;11.38;;;;;;;8.75;nan;99767.72;4909689;29;20495;-74
2022/03/12 08:03:51;;;;;;;14.00;10.47;;;;;;;8.85;nan;99761.06;4908960;29;20266;-74
2022/03/12 08:06:16;;;;;;;11.87;9.03;;;;;;;8.95;nan;99767.50;4908230;29;20206;-75
2022/03/12 08:08:42;;;;;;;11.43;9.77;;;;;;;9.07;nan;99768.59;4910133;29;20234;-74
2022/03/12 08:11:28;;;;;;;13.33;9.87;;;;;;;9.16;nan;99765.47;4908935;29;20911;-74
2022/03/12 08:14:02;;;;;;;10.05;9.02;;;;;;;9.29;nan;99760.41;4908352;29;20281;-74
2022/03/12 08:16:30;;;;;;;12.52;9.73;;;;;;;9.55;nan;99758.06;4901562;29;20224;-75
2022/03/12 08:18:56;;;;;;;13.00;9.30;;;;;;;9.89;nan;99749.94;4907328;29;20272;-74
2022/03/12 08:21:22;;;;;;;15.73;9.43;;;;;;;10.29;nan;99752.88;4908227;29;20206;-74
2022/03/12 08:23:49;;;;;;;12.50;8.80;;;;;;;10.72;nan;99759.91;4908794;29;20261;-80
2022/03/12 08:26:15;;;;;;;11.68;8.82;;;;;;;11.16;nan;99753.66;4909977;29;20206;-76
2022/03/12 08:28:41;;;;;;;10.45;8.27;;;;;;;11.56;nan;99753.69;4908052;29;20734;-76
2022/03/12 08:31:07;;;;;;;12.93;8.70;;;;;;;11.94;nan;99752.06;4910196;29;20432;-74
2022/03/12 08:33:34;;;;;;;18.45;10.00;;;;;;;12.19;nan;99755.66;4908874;29;20261;-75
2022/03/12 08:36:02;;;;;;;11.88;8.80;;;;;;;12.32;nan;99753.88;4900037;29;20571;-77
2022/03/12 08:38:27;;;;;;;17.35;8.05;;;;;;;12.30;nan;99752.28;4909795;29;20342;-76
2022/03/12 08:40:54;;;;;;;14.88;10.50;;;;;;;12.23;nan;99751.03;4908435;29;20210;-76
2022/03/12 08:43:19;;;;;;;14.50;8.93;;;;;;;12.15;nan;99755.03;4909216;29;21068;-74
2022/03/12 08:45:45;;;;;;;12.87;9.27;;;;;;;12.12;nan;99754.38;4907887;29;20714;-74
2022/03/12 08:48:11;;;;;;;14.13;8.90;;;;;;;12.04;nan;99760.16;4909009;29;20266;-75
2022/03/12 08:50:37;;;;;;;14.43;9.88;;;;;;;11.90;nan;99762.88;4907957;29;20209;-77
2022/03/12 08:53:02;;;;;;;13.23;10.37;;;;;;;11.78;nan;99764.50;4909639;29;20206;-76
2022/03/12 08:55:28;;;;;;;9.77;8.30;;;;;;;11.64;nan;99765.44;4906292;29;20629;-78
2022/03/12 08:57:55;;;;;;;11.83;9.27;;;;;;;11.60;nan;99763.09;4908800;29;20419;-75
2022/03/12 09:00:22;;;;;;;11.43;9.13;;;;;;;11.67;nan;99761.75;4909849;29;20269;-76
2022/03/12 09:02:49;;;;;;;15.68;11.50;;;;;;;11.83;nan;99761.59;4901291;29;20578;-81
2022/03/12 09:05:15;;;;;;;11.68;9.55;;;;;;;11.85;nan;99759.69;4905255;29;20229;-76
2022/03/12 09:07:42;;;;;;;12.33;9.00;;;;;;;11.86;nan;99761.41;4907638;29;20711;-76
2022/03/12 09:10:11;;;;;;;11.30;9.00;;;;;;;11.98;nan;99760.56;4906422;29;20238;-74
2022/03/12 09:12:37;;;;;;;13.90;10.00;;;;;;;12.15;nan;99757.66;4907413;29;20214;-75
2022/03/12 09:15:04;;;;;;;11.98;8.80;;;;;;;12.24;nan;99758.00;4908856;29;20217;-74
2022/03/12 09:17:30;;;;;;;21.75;10.75;;;;;;;12.32;nan;99759.16;4907907;29;20217;-76
2022/03/12 09:19:57;;;;;;;15.18;10.15;;;;;;;12.39;nan;99757.78;4904111;29;20222;-77
2022/03/12 09:22:23;;;;;;;12.37;10.00;;;;;;;12.43;nan;99753.13;4908592;29;20273;-78
2022/03/12 09:24:49;;;;;;;16.00;9.30;;;;;;;12.46;nan;99758.19;4905345;29;20226;-74
2022/03/12 09:27:14;;;;;;;10.23;8.10;;;;;;;12.49;nan;99757.97;4906858;29;20206;-74
2022/03/12 09:29:41;;;;;;;14.60;10.17;;;;;;;12.52;nan;99755.13;4907910;29;20488;-77
2022/03/12 09:32:08;;;;;;;14.30;11.70;;;;;;;12.58;nan;99752.09;4907315;29;20515;-75
2022/03/12 09:34:34;;;;;;;14.73;11.80;;;;;;;12.63;nan;99755.22;4908540;29;20485;-74
2022/03/12 09:37:01;;;;;;;12.50;10.85;;;;;;;12.71;nan;99756.47;4908244;29;20211;-75
2022/03/12 09:39:26;;;;;;;16.02;11.75;;;;;;;12.79;nan;99752.34;4909474;29;20254;-76
2022/03/12 09:41:52;;;;;;;25.93;14.93;;;;;;;12.83;nan;99756.47;4908007;29;20213;-77
2022/03/12 09:44:17;;;;;;;25.40;13.67;;;;;;;12.82;nan;99746.84;4907963;29;20233;-77
2022/03/12 09:46:43;;;;;;;12.33;10.70;;;;;;;12.86;nan;99750.16;4908580;29;20747;-74
2022/03/12 09:49:11;;;;;;;13.70;11.23;;;;;;;12.94;nan;99747.81;4908587;29;20237;-74
2022/03/12 09:51:40;;;;;;;17.17;11.00;;;;;;;13.00;nan;99743.88;4907125;29;20202;-81
2022/03/12 09:54:08;;;;;;;27.88;10.93;;;;;;;13.04;nan;99743.56;4908298;29;20549;-75
2022/03/12 09:56:34;;;;;;;22.83;8.60;;;;;;;13.09;nan;99737.09;4911200;29;20217;-78
2022/03/12 09:58:59;;;;;;;14.23;7.33;;;;;;;13.09;nan;99739.75;4909390;29;21336;-75
2022/03/12 10:01:25;;;;;;;11.00;7.43;;;;;;;13.12;nan;99739.50;4911981;29;20206;-75
2022/03/12 10:03:50;;;;;;;17.40;8.63;;;;;;;13.17;nan;99737.38;4909428;29;20230;-74
2022/03/12 10:06:16;;;;;;;11.50;8.73;;;;;;;13.22;nan;99730.00;4911047;29;20218;-74
2022/03/12 10:08:42;;;;;;;14.33;9.60;;;;;;;13.27;nan;99726.09;4911638;29;20230;-75
2022/03/12 10:11:08;;;;;;;9.90;8.25;;;;;;;13.30;nan;99722.38;4914730;29;20207;-74
2022/03/12 10:13:34;;;;;;;14.47;7.70;;;;;;;13.37;nan;99723.63;4916726;29;20758;-75
2022/03/12 10:15:59;;;;;;;11.83;7.37;;;;;;;13.45;nan;99716.00;4917351;29;20670;-75
2022/03/12 10:18:28;;;;;;;18.20;9.03;;;;;;;13.57;nan;99724.78;4910821;29;20477;-76
2022/03/12 10:20:57;;;;;;;10.82;8.00;;;;;;;13.66;nan;99710.94;4909938;29;20266;-75
2022/03/12 10:23:22;;;;;;;12.65;7.90;;;;;;;13.73;nan;99719.22;4911451;29;20235;-74
2022/03/12 10:25:48;;;;;;;9.47;8.10;;;;;;;13.82;nan;99707.94;4911510;29;20206;-76
2022/03/12 10:28:13;;;;;;;11.53;8.33;;;;;;;13.93;nan;99710.66;4910947;29;20571;-76
2022/03/12 10:30:40;;;;;;;12.40;8.10;;;;;;;13.98;nan;99709.44;4912006;29;20583;-79
2022/03/12 10:33:06;;;;;;;10.68;8.43;;;;;;;13.97;nan;99715.69;4911027;29;20667;-74
2022/03/12 10:35:37;;;;;;;10.63;8.98;;;;;;;14.00;nan;99705.72;4912504;29;20751;-74
2022/03/12 10:38:12;;;;;;;11.48;10.27;;;;;;;14.11;nan;99699.63;4910296;29;20890;-75
2022/03/12 10:40:38;;;;;;;19.50;11.50;;;;;;;14.14;nan;99702.03;4910180;29;20214;-76
2022/03/12 10:43:12;;;;;;;16.15;11.30;;;;;;;14.19;nan;99697.22;4909101;29;20878;-74
2022/03/12 10:45:50;;;;;;;14.32;9.90;;;;;;;14.32;nan;99705.88;4911462;29;20251;-76
2022/03/12 10:48:19;;;;;;;15.55;12.15;;;;;;;14.49;nan;99691.34;4910397;29;20594;-76
2022/03/12 10:50:48;;;;;;;12.27;9.90;;;;;;;14.55;nan;99696.19;4901259;29;20566;-78
2022/03/12 10:53:15;;;;;;;17.90;9.18;;;;;;;14.63;nan;99689.47;4909728;29;20206;-82
2022/03/12 10:55:46;;;;;;;13.07;11.05;;;;;;;14.69;nan;99686.31;4911730;29;21164;-79
2022/03/12 10:58:15;;;;;;;10.55;9.50;;;;;;;14.73;nan;99680.66;4909230;29;20268;-76
2022/03/12 11:00:46;;;;;;;12.13;9.13;;;;;;;14.79;nan;99677.53;4911930;29;20206;-74
2022/03/12 11:03:15;;;;;;;12.55;9.25;;;;;;;14.77;nan;99676.84;4911572;29;20224;-75
2022/03/12 11:05:43;;;;;;;8.80;6.97;;;;;;;14.71;nan;99669.38;4911214;29;20262;-75
2022/03/12 11:08:18;;;;;;;12.25;9.18;;;;;;;14.75;nan;99673.47;4916062;29;20202;-73
2022/03/12 11:10:50;;;;;;;14.38;9.38;;;;;;;14.81;nan;99678.25;4911934;29;20210;-78
2022/03/12 11:13:47;;;;;;;12.23;9.20;;;;;;;14.83;nan;99676.34;4910531;29;20264;-75
2022/03/12 11:16:24;;;;;;;12.65;8.18;;;;;;;14.82;nan;99684.38;4911215;29;20313;-74
2022/03/12 11:18:52;;;;;;;11.07;8.93;;;;;;;14.81;nan;99683.53;4907771;29;20238;-74
2022/03/12 11:21:37;;;;;;;14.18;9.82;;;;;;;14.85;nan;99680.66;4911381;29;20220;-74
2022/03/12 11:24:25;;;;;;;13.20;9.40;;;;;;;14.88;nan;99675.09;4899646;29;20231;-73
2022/03/12 11:26:58;;;;;;;11.18;9.15;;;;;;;14.98;nan;99666.31;4909218;29;20215;-74
2022/03/12 11:29:28;;;;;;;11.65;9.85;;;;;;;15.12;nan;99662.56;4911269;29;20239;-77
2022/03/12 11:31:58;;;;;;;16.00;11.15;;;;;;;15.26;nan;99661.44;4909913;29;20972;-77
2022/03/12 11:34:24;;;;;;;16.90;12.10;;;;;;;15.32;nan;99662.72;4911444;29;20204;-77
2022/03/12 11:37:22;;;;;;;13.38;9.32;;;;;;;15.31;nan;99667.19;4910165;29;20571;-73
2022/03/12 11:39:49;;;;;;;15.52;10.00;;;;;;;15.35;nan;99663.31;4910087;29;20781;-73
2022/03/12 11:42:17;;;;;;;13.02;9.40;;;;;;;15.31;nan;99661.91;4910247;29;20214;-74
2022/03/12 11:44:45;;;;;;;12.65;9.60;;;;;;;15.28;nan;99662.13;4911406;29;20234;-76